createdAt,value
2018-03-15T00:00:13.090Z,95.6
2018-03-15T00:01:13.066Z,95.45
2018-03-15T00:02:13.043Z,94.98
2018-03-15T00:03:13.066Z,95.07
2018-03-15T00:04:13.000Z,95.07
2018-03-15T00:05:12.981Z,95.07
2018-03-15T00:06:12.690Z,94.42
2018-03-15T00:07:12.672Z,94.6
2018-03-15T00:08:12.648Z,95.17
2018-03-15T00:09:12.626Z,94.98
2018-03-15T00:10:12.867Z,94.89
2018-03-15T00:11:12.851Z,95.07
2018-03-15T00:12:12.560Z,94.42
2018-03-15T00:13:12.803Z,94.42
2018-03-15T00:14:12.780Z,94.98
2018-03-15T00:15:12.761Z,94.7
2018-03-15T00:16:12.481Z,94.79
2018-03-15T00:17:12.717Z,94.89
2018-03-15T00:18:12.706Z,94.6
2018-03-15T00:19:12.412Z,94.6
2018-03-15T00:20:12.653Z,94.79
2018-03-15T00:21:12.395Z,94.6
2018-03-15T00:22:12.435Z,94.42
2018-03-15T00:23:12.331Z,92.99
2018-03-15T00:24:12.563Z,93.08
2018-03-15T00:25:12.539Z,92.71
2018-03-15T00:26:12.564Z,93.37
2018-03-15T00:27:12.229Z,92.9
2018-03-15T00:28:12.473Z,92.9
2018-03-15T00:29:12.185Z,93.08
2018-03-15T00:30:12.164Z,92.33
2018-03-15T00:31:12.409Z,92.9
2018-03-15T00:32:12.124Z,92.71
2018-03-15T00:33:12.364Z,92.33
2018-03-15T00:34:12.366Z,92.9
2018-03-15T00:35:12.328Z,92.33
2018-03-15T00:36:12.297Z,91.95
2018-03-15T00:37:12.007Z,91.19
2018-03-15T00:38:12.253Z,91.38
2018-03-15T00:39:11.963Z,91.86
2018-03-15T00:40:12.211Z,91.67
2018-03-15T00:41:11.919Z,91.67
2018-03-15T00:42:12.160Z,91.38
2018-03-15T00:43:11.876Z,92.24
2018-03-15T00:44:11.859Z,91.86
2018-03-15T00:45:12.097Z,91.86
2018-03-15T00:46:11.811Z,91.76
2018-03-15T00:47:11.789Z,91.48
2018-03-15T00:48:12.031Z,91.38
2018-03-15T00:49:12.005Z,91.1
2018-03-15T00:50:11.720Z,91.1
2018-03-15T00:51:11.963Z,91.57
2018-03-15T00:52:11.675Z,91.29
2018-03-15T00:53:11.924Z,90.91
2018-03-15T00:54:11.895Z,91.67
2018-03-15T00:55:11.875Z,91.38
2018-03-15T00:56:11.587Z,90.53
2018-03-15T00:57:11.566Z,90.53
2018-03-15T00:58:11.808Z,91
2018-03-15T00:59:11.818Z,90.15
2018-03-15T01:00:11.768Z,90.53
2018-03-15T01:01:11.755Z,90.91
2018-03-15T01:02:11.723Z,90.91
2018-03-15T01:03:11.434Z,91
2018-03-15T01:04:11.411Z,90.72
2018-03-15T01:05:11.393Z,91
2018-03-15T01:06:11.364Z,90.53
2018-03-15T01:07:11.609Z,90.91
2018-03-15T01:08:11.583Z,91.57
2018-03-15T01:09:11.565Z,91.67
2018-03-15T01:10:11.277Z,90.91
2018-03-15T01:11:11.520Z,90.91
2018-03-15T01:12:11.495Z,91
2018-03-15T01:13:11.208Z,90.53
2018-03-15T01:14:11.457Z,90.44
2018-03-15T01:15:11.166Z,90.25
2018-03-15T01:16:11.143Z,89.77
2018-03-15T01:17:11.381Z,89.2
2018-03-15T01:18:11.096Z,88.92
2018-03-15T01:19:11.342Z,88.35
2018-03-15T01:20:11.054Z,88.54
2018-03-15T01:21:11.029Z,88.73
2018-03-15T01:22:11.008Z,88.82
2018-03-15T01:23:11.252Z,89.58
2018-03-15T01:24:10.966Z,89.49
2018-03-15T01:25:11.213Z,89.49
2018-03-15T01:26:10.920Z,89.2
2018-03-15T01:27:10.901Z,89.11
2018-03-15T01:28:11.136Z,89.01
2018-03-15T01:29:11.118Z,89.77
2018-03-15T01:30:10.828Z,89.68
2018-03-15T01:31:10.812Z,89.11
2018-03-15T01:32:10.787Z,89.01
2018-03-15T01:33:11.026Z,88.73
2018-03-15T01:34:11.063Z,88.82
2018-03-15T01:35:10.989Z,88.64
2018-03-15T01:36:10.961Z,88.73
2018-03-15T01:37:10.958Z,88.64
2018-03-15T01:38:10.649Z,88.92
2018-03-15T01:39:10.891Z,87.21
2018-03-15T01:40:10.604Z,87.88
2018-03-15T01:41:10.581Z,88.07
2018-03-15T01:42:10.560Z,87.5
2018-03-15T01:43:10.804Z,87.69
2018-03-15T01:44:10.782Z,87.69
2018-03-15T01:45:10.492Z,88.17
2018-03-15T01:46:10.936Z,87.78
2018-03-15T01:47:10.448Z,88.45
2018-03-15T01:48:10.433Z,88.45
2018-03-15T01:49:10.405Z,88.54
2018-03-15T01:50:10.383Z,87.98
2018-03-15T01:51:10.622Z,88.26
2018-03-15T01:52:10.600Z,88.07
2018-03-15T01:53:10.586Z,87.93
2018-03-15T01:54:10.555Z,87.93
2018-03-15T01:55:10.537Z,87.36
2018-03-15T01:56:10.510Z,87.55
2018-03-15T01:57:10.225Z,87.12
2018-03-15T01:58:10.201Z,86.79
2018-03-15T01:59:10.445Z,86.98
2018-03-15T02:00:10.155Z,86.89
2018-03-15T02:01:10.137Z,87.36
2018-03-15T02:02:10.385Z,85.85
2018-03-15T02:03:10.353Z,86.18
2018-03-15T02:04:10.329Z,85.75
2018-03-15T02:05:10.318Z,86.04
2018-03-15T02:06:10.018Z,86.04
2018-03-15T02:07:10.006Z,86.27
2018-03-15T02:08:09.972Z,86.04
2018-03-15T02:09:09.987Z,85.75
2018-03-15T02:10:09.928Z,85.66
2018-03-15T02:11:10.182Z,85.61
2018-03-15T02:12:10.148Z,85.7
2018-03-15T02:13:10.143Z,85.7
2018-03-15T02:14:10.106Z,85.85
2018-03-15T02:15:10.084Z,85.61
2018-03-15T02:16:09.794Z,85.8
2018-03-15T02:17:10.036Z,85.8
2018-03-15T02:18:10.021Z,85.89
2018-03-15T02:19:09.994Z,85.89
2018-03-15T02:20:09.978Z,86.13
2018-03-15T02:21:09.681Z,85.99
2018-03-15T02:22:09.661Z,85.51
2018-03-15T02:23:09.905Z,85.61
2018-03-15T02:24:09.877Z,85.7
2018-03-15T02:25:09.892Z,85.8
2018-03-15T02:26:09.831Z,85.13
2018-03-15T02:27:09.550Z,85.42
2018-03-15T02:28:09.521Z,85.61
2018-03-15T02:29:09.768Z,85.7
2018-03-15T02:30:09.475Z,85.57
2018-03-15T02:31:09.721Z,85.28
2018-03-15T02:32:09.700Z,85.66
2018-03-15T02:33:09.680Z,85.85
2018-03-15T02:34:09.397Z,84.71
2018-03-15T02:35:09.368Z,85.28
2018-03-15T02:36:09.339Z,84.71
2018-03-15T02:37:09.317Z,85.28
2018-03-15T02:38:09.559Z,85.09
2018-03-15T02:39:09.604Z,85.28
2018-03-15T02:40:09.518Z,85.38
2018-03-15T02:41:09.267Z,85.38
2018-03-15T02:42:09.471Z,85.28
2018-03-15T02:43:09.455Z,85.28
2018-03-15T02:44:09.159Z,84.9
2018-03-15T02:45:09.415Z,84.9
2018-03-15T02:46:09.385Z,85.42
2018-03-15T02:47:09.373Z,85.38
2018-03-15T02:48:09.071Z,84.81
2018-03-15T02:49:09.319Z,84.33
2018-03-15T02:50:09.022Z,84.85
2018-03-15T02:51:09.268Z,85.32
2018-03-15T02:52:09.249Z,85.42
2018-03-15T02:53:09.227Z,85.42
2018-03-15T02:54:09.200Z,85.13
2018-03-15T02:55:09.174Z,85.42
2018-03-15T02:56:08.890Z,85.04
2018-03-15T02:57:08.874Z,85.61
2018-03-15T02:58:09.112Z,84.85
2018-03-15T02:59:09.093Z,85.7
2018-03-15T03:00:09.064Z,85.85
2018-03-15T03:01:08.774Z,85.8
2018-03-15T03:02:08.753Z,85.8
2018-03-15T03:03:08.751Z,86.13
2018-03-15T03:04:08.704Z,85.89
2018-03-15T03:05:08.682Z,85.66
2018-03-15T03:06:08.663Z,86.04
2018-03-15T03:07:08.639Z,85.75
2018-03-15T03:08:08.613Z,85.75
2018-03-15T03:09:08.594Z,86.08
2018-03-15T03:10:08.834Z,86.04
2018-03-15T03:11:08.810Z,85.66
2018-03-15T03:12:08.792Z,84.81
2018-03-15T03:13:08.776Z,85.8
2018-03-15T03:14:08.743Z,85.7
2018-03-15T03:15:08.460Z,85.7
2018-03-15T03:16:08.438Z,85.7
2018-03-15T03:17:08.410Z,86.08
2018-03-15T03:18:08.653Z,86.18
2018-03-15T03:19:08.632Z,85.85
2018-03-15T03:20:08.612Z,86.27
2018-03-15T03:21:08.319Z,86.46
2018-03-15T03:22:08.297Z,85.99
2018-03-15T03:23:08.544Z,85.99
2018-03-15T03:24:08.251Z,85.99
2018-03-15T03:25:08.491Z,86.46
2018-03-15T03:26:08.472Z,86.6
2018-03-15T03:27:08.443Z,86.22
2018-03-15T03:28:08.435Z,86.22
2018-03-15T03:29:08.403Z,86.51
2018-03-15T03:30:08.385Z,85.85
2018-03-15T03:31:08.096Z,86.13
2018-03-15T03:32:08.331Z,85.7
2018-03-15T03:33:08.322Z,86.08
2018-03-15T03:34:08.292Z,86.55
2018-03-15T03:35:08.004Z,86.13
2018-03-15T03:36:08.244Z,87.08
2018-03-15T03:37:08.224Z,87.08
2018-03-15T03:38:08.200Z,87.08
2018-03-15T03:39:07.913Z,85.85
2018-03-15T03:40:08.154Z,86.22
2018-03-15T03:41:08.135Z,86.51
2018-03-15T03:42:08.108Z,86.32
2018-03-15T03:43:07.826Z,86.41
2018-03-15T03:44:08.058Z,86.13
2018-03-15T03:45:08.048Z,86.7
2018-03-15T03:46:07.954Z,87.08
2018-03-15T03:47:07.991Z,86.32
2018-03-15T03:48:07.972Z,86.51
2018-03-15T03:49:07.948Z,86.51
2018-03-15T03:50:07.661Z,86.13
2018-03-15T03:51:07.637Z,86.51
2018-03-15T03:52:07.624Z,86.6
2018-03-15T03:53:07.593Z,86.7
2018-03-15T03:54:07.835Z,86.7
2018-03-15T03:55:07.816Z,87.08
2018-03-15T03:56:07.527Z,86.51
2018-03-15T03:57:07.501Z,86.32
2018-03-15T03:58:07.476Z,86.89
2018-03-15T03:59:07.454Z,87.08
2018-03-15T04:00:07.432Z,86.89
2018-03-15T04:01:07.676Z,86.89
2018-03-15T04:02:07.390Z,86.79
2018-03-15T04:03:07.361Z,86.22
2018-03-15T04:04:07.342Z,86.89
2018-03-15T04:05:07.587Z,87.17
2018-03-15T04:06:07.294Z,86.6
2018-03-15T04:07:07.539Z,87.08
2018-03-15T04:08:07.517Z,86.98
2018-03-15T04:09:07.225Z,86.89
2018-03-15T04:10:07.203Z,86.22
2018-03-15T04:11:07.181Z,86.83
2018-03-15T04:12:07.423Z,87.08
2018-03-15T04:13:07.139Z,87.65
2018-03-15T04:14:07.114Z,87.46
2018-03-15T04:15:07.358Z,87.17
2018-03-15T04:16:07.331Z,86.98
2018-03-15T04:17:07.044Z,87.36
2018-03-15T04:18:07.025Z,87.78
2018-03-15T04:19:07.278Z,87.65
2018-03-15T04:20:07.238Z,88.02
2018-03-15T04:21:07.215Z,87.93
2018-03-15T04:22:07.195Z,88.59
2018-03-15T04:23:07.223Z,88.59
2018-03-15T04:24:07.153Z,88.68
2018-03-15T04:25:06.862Z,88.49
2018-03-15T04:26:06.837Z,88.49
2018-03-15T04:27:07.085Z,88.59
2018-03-15T04:28:07.056Z,88.4
2018-03-15T04:29:06.774Z,87.93
2018-03-15T04:30:06.751Z,88.02
2018-03-15T04:31:06.726Z,87.36
2018-03-15T04:32:06.966Z,86.51
2018-03-15T04:33:06.947Z,86.32
2018-03-15T04:34:06.656Z,86.51
2018-03-15T04:35:06.902Z,85.94
2018-03-15T04:36:06.609Z,86.32
2018-03-15T04:37:06.853Z,86.6
2018-03-15T04:38:06.843Z,86.32
2018-03-15T04:39:06.544Z,86.13
2018-03-15T04:40:06.789Z,85.94
2018-03-15T04:41:06.767Z,86.51
2018-03-15T04:42:06.473Z,86.04
2018-03-15T04:43:06.451Z,86.13
2018-03-15T04:44:06.690Z,85.94
2018-03-15T04:45:06.406Z,85.66
2018-03-15T04:46:06.383Z,85.47
2018-03-15T04:47:06.361Z,85.75
2018-03-15T04:48:06.606Z,85.66
2018-03-15T04:49:06.583Z,85.85
2018-03-15T04:50:06.558Z,85.75
2018-03-15T04:51:06.533Z,85.75
2018-03-15T04:52:06.519Z,85.47
2018-03-15T04:53:06.487Z,86.13
2018-03-15T04:54:06.198Z,85.09
2018-03-15T04:55:06.444Z,84.9
2018-03-15T04:56:06.152Z,85.09
2018-03-15T04:57:06.127Z,84.9
2018-03-15T04:58:06.372Z,85.19
2018-03-15T04:59:06.348Z,85.19
2018-03-15T05:00:06.324Z,85.38
2018-03-15T05:01:06.317Z,85.38
2018-03-15T05:02:06.280Z,85.28
2018-03-15T05:03:05.992Z,85.09
2018-03-15T05:04:06.236Z,85
2018-03-15T05:05:06.219Z,85.66
2018-03-15T05:06:05.925Z,85.75
2018-03-15T05:07:05.899Z,85
2018-03-15T05:08:05.878Z,85.38
2018-03-15T05:09:05.852Z,84.9
2018-03-15T05:10:05.833Z,84.42
2018-03-15T05:11:06.106Z,84.14
2018-03-15T05:12:05.787Z,84.33
2018-03-15T05:13:05.762Z,84.42
2018-03-15T05:14:06.018Z,84.33
2018-03-15T05:15:05.716Z,84.23
2018-03-15T05:16:05.697Z,84.81
2018-03-15T05:17:05.941Z,84.9
2018-03-15T05:18:05.914Z,85.09
2018-03-15T05:19:05.627Z,85.75
2018-03-15T05:20:05.871Z,85.57
2018-03-15T05:21:05.583Z,85
2018-03-15T05:22:05.825Z,85.94
2018-03-15T05:23:05.537Z,85.75
2018-03-15T05:24:05.513Z,85.85
2018-03-15T05:25:05.493Z,85.66
2018-03-15T05:26:05.731Z,85.99
2018-03-15T05:27:05.706Z,86.18
2018-03-15T05:28:05.690Z,85.75
2018-03-15T05:29:05.663Z,86.08
2018-03-15T05:30:05.374Z,86.18
2018-03-15T05:31:05.354Z,86.36
2018-03-15T05:32:05.594Z,86.18
2018-03-15T05:33:05.573Z,86.36
2018-03-15T05:34:05.555Z,86.18
2018-03-15T05:35:05.529Z,86.93
2018-03-15T05:36:05.238Z,86.83
2018-03-15T05:37:05.481Z,86.83
2018-03-15T05:38:05.189Z,86.74
2018-03-15T05:39:05.436Z,86.83
2018-03-15T05:40:05.143Z,86.65
2018-03-15T05:41:05.389Z,86.93
2018-03-15T05:42:05.098Z,86.93
2018-03-15T05:43:05.344Z,87.5
2018-03-15T05:44:05.054Z,87.98
2018-03-15T05:45:05.031Z,88.17
2018-03-15T05:46:05.417Z,87.59
2018-03-15T05:47:05.251Z,86.65
2018-03-15T05:48:05.227Z,87.59
2018-03-15T05:49:05.206Z,88.26
2018-03-15T05:50:04.918Z,88.07
2018-03-15T05:51:04.896Z,88.07
2018-03-15T05:52:04.873Z,88.82
2018-03-15T05:53:04.848Z,88.64
2018-03-15T05:54:04.827Z,88.82
2018-03-15T05:55:04.802Z,88.73
2018-03-15T05:56:05.046Z,88.35
2018-03-15T05:57:05.023Z,88.35
2018-03-15T05:58:04.769Z,88.64
2018-03-15T05:59:05.001Z,88.82
2018-03-15T06:00:04.695Z,88.92
2018-03-15T06:01:04.938Z,89.2
2018-03-15T06:02:04.642Z,88.82
2018-03-15T06:03:04.621Z,89.01
2018-03-15T06:04:04.867Z,89.77
2018-03-15T06:05:04.576Z,89.2
2018-03-15T06:06:04.815Z,89.58
2018-03-15T06:07:04.529Z,89.96
2018-03-15T06:08:04.772Z,89.68
2018-03-15T06:09:04.481Z,89.96
2018-03-15T06:10:04.460Z,90.34
2018-03-15T06:11:04.439Z,90.06
2018-03-15T06:12:04.681Z,90.44
2018-03-15T06:13:04.658Z,91.19
2018-03-15T06:14:04.368Z,90.81
2018-03-15T06:15:04.346Z,91.48
2018-03-15T06:16:04.589Z,91.67
2018-03-15T06:17:04.300Z,91.38
2018-03-15T06:18:04.274Z,91.48
2018-03-15T06:19:04.254Z,91
2018-03-15T06:20:04.494Z,91.19
2018-03-15T06:21:04.208Z,91.86
2018-03-15T06:22:04.189Z,92.33
2018-03-15T06:23:04.432Z,92.43
2018-03-15T06:24:04.402Z,92.9
2018-03-15T06:25:04.385Z,92.99
2018-03-15T06:26:04.363Z,93.08
2018-03-15T06:27:04.340Z,93.75
2018-03-15T06:28:04.315Z,93.65
2018-03-15T06:29:04.029Z,93.27
2018-03-15T06:30:04.007Z,93.65
2018-03-15T06:31:04.252Z,93.46
2018-03-15T06:32:04.227Z,93.94
2018-03-15T06:33:04.207Z,94.42
2018-03-15T06:34:03.932Z,94.7
2018-03-15T06:35:03.896Z,94.23
2018-03-15T06:36:03.871Z,94.6
2018-03-15T06:37:03.856Z,95.07
2018-03-15T06:38:03.826Z,94.89
2018-03-15T06:39:03.804Z,95.03
2018-03-15T06:40:03.784Z,95.12
2018-03-15T06:41:03.762Z,95.69
2018-03-15T06:42:03.734Z,95.98
2018-03-15T06:43:03.979Z,95.69
2018-03-15T06:44:03.962Z,96.07
2018-03-15T06:45:03.934Z,96.07
2018-03-15T06:46:03.644Z,96.26
2018-03-15T06:47:03.624Z,96.45
2018-03-15T06:48:03.869Z,96.55
2018-03-15T06:49:03.578Z,96.73
2018-03-15T06:50:03.827Z,97.02
2018-03-15T06:51:03.816Z,96.83
2018-03-15T06:52:03.783Z,96.92
2018-03-15T06:53:03.487Z,97.11
2018-03-15T06:54:03.737Z,97.02
2018-03-15T06:55:03.721Z,97.68
2018-03-15T06:56:03.424Z,97.49
2018-03-15T06:57:03.405Z,97.87
2018-03-15T06:58:03.379Z,97.59
2018-03-15T06:59:03.357Z,98.35
2018-03-15T07:00:03.603Z,98.72
2018-03-15T07:01:03.589Z,98.44
2018-03-15T07:02:03.293Z,98.63
2018-03-15T07:03:03.541Z,98.54
2018-03-15T07:04:03.515Z,99.1
2018-03-15T07:05:03.227Z,99.1
2018-03-15T07:06:03.472Z,99.86
2018-03-15T07:07:03.462Z,99.99
2018-03-15T07:08:03.424Z,99.99
2018-03-15T07:09:03.136Z,99.99
2018-03-15T07:10:03.121Z,99.99
2018-03-15T07:11:03.356Z,99.99
2018-03-15T07:12:03.342Z,99.82
2018-03-15T07:13:03.315Z,99.99
2018-03-15T07:14:03.296Z,99.99
2018-03-15T07:15:03.271Z,99.99
2018-03-15T07:16:02.985Z,99.99
2018-03-15T07:17:03.231Z,99.99
2018-03-15T07:18:02.951Z,99.99
2018-03-15T07:19:02.924Z,99.99
2018-03-15T07:20:03.166Z,99.99
2018-03-15T07:21:02.882Z,99.99
2018-03-15T07:22:02.857Z,99.99
2018-03-15T07:23:03.101Z,99.99
2018-03-15T07:24:02.817Z,99.99
2018-03-15T07:25:02.799Z,99.99
2018-03-15T07:26:03.043Z,99.99
2018-03-15T07:27:02.749Z,99.99
2018-03-15T07:28:02.996Z,99.99
2018-03-15T07:29:02.726Z,99.99
2018-03-15T07:30:02.691Z,99.99
2018-03-15T07:31:02.665Z,99.99
2018-03-15T07:32:02.912Z,99.99
2018-03-15T07:33:02.890Z,99.99
2018-03-15T07:34:02.603Z,99.99
2018-03-15T07:35:02.850Z,99.99
2018-03-15T07:36:02.830Z,99.99
2018-03-15T07:37:02.545Z,99.99
2018-03-15T07:38:02.518Z,99.99
2018-03-15T07:39:02.762Z,99.99
2018-03-15T07:40:02.478Z,99.99
2018-03-15T07:41:02.728Z,99.99
2018-03-15T07:42:02.441Z,99.99
2018-03-15T07:43:02.415Z,99.99
2018-03-15T07:44:02.663Z,99.99
2018-03-15T07:45:02.373Z,99.99
2018-03-15T07:46:02.352Z,99.99
2018-03-15T07:47:02.331Z,99.99
2018-03-15T07:48:02.309Z,99.99
2018-03-15T07:49:02.290Z,99.99
2018-03-15T07:50:02.273Z,99.99
2018-03-15T07:51:02.518Z,99.99
2018-03-15T07:52:02.230Z,99.99
2018-03-15T07:53:02.471Z,99.99
2018-03-15T07:54:02.189Z,99.99
2018-03-15T07:55:02.168Z,99.99
2018-03-15T07:56:02.209Z,99.99
2018-03-15T07:57:02.127Z,99.99
2018-03-15T07:58:02.373Z,99.99
2018-03-15T07:59:02.085Z,99.99
2018-03-15T08:00:02.332Z,99.99
2018-03-15T08:01:02.345Z,99.99
2018-03-15T08:02:02.375Z,99.99
2018-03-15T08:03:02.056Z,99.99
2018-03-15T08:04:02.011Z,99.99
2018-03-15T08:05:02.233Z,99.99
2018-03-15T08:06:01.947Z,99.99
2018-03-15T08:07:02.196Z,99.99
2018-03-15T08:08:02.177Z,99.99
2018-03-15T08:09:01.889Z,99.99
2018-03-15T08:10:01.866Z,99.99
2018-03-15T08:11:01.900Z,99.99
2018-03-15T08:12:02.091Z,99.99
2018-03-15T08:13:02.074Z,99.99
2018-03-15T08:14:01.788Z,99.99
2018-03-15T08:15:02.033Z,99.99
2018-03-15T08:16:02.016Z,99.99
2018-03-15T08:17:01.992Z,99.99
2018-03-15T08:18:01.971Z,99.99
2018-03-15T08:19:01.690Z,99.99
2018-03-15T08:20:01.960Z,99.99
2018-03-15T08:21:01.701Z,99.99
2018-03-15T08:22:01.919Z,99.99
2018-03-15T08:23:01.877Z,99.99
2018-03-15T08:24:01.857Z,99.99
2018-03-15T08:25:01.848Z,99.99
2018-03-15T08:26:02.119Z,99.99
2018-03-15T08:27:01.800Z,99.99
2018-03-15T08:28:01.785Z,99.99
2018-03-15T08:29:01.763Z,99.99
2018-03-15T08:30:01.811Z,99.99
2018-03-15T08:31:01.467Z,99.99
2018-03-15T08:32:01.715Z,99.99
2018-03-15T08:33:01.696Z,99.99
2018-03-15T08:34:01.465Z,99.99
2018-03-15T08:35:01.408Z,99.99
2018-03-15T08:36:01.658Z,99.99
2018-03-15T08:37:01.369Z,99.99
2018-03-15T08:38:01.620Z,99.99
2018-03-15T08:39:01.336Z,99.99
2018-03-15T08:40:01.588Z,99.99
2018-03-15T08:41:01.305Z,97.18
2018-03-15T08:42:01.294Z,95.94
2018-03-15T08:43:01.544Z,94.89
2018-03-15T08:44:01.266Z,92.07
2018-03-15T08:45:01.518Z,91.16
2018-03-15T08:46:01.502Z,92.83
2018-03-15T08:47:01.223Z,91.11
2018-03-15T08:48:01.210Z,88.87
2018-03-15T08:49:01.464Z,90.39
2018-03-15T08:50:01.185Z,92.07
2018-03-15T08:51:01.436Z,90.54
2018-03-15T08:52:01.429Z,90.92
2018-03-15T08:53:01.147Z,91.36
2018-03-15T08:54:01.405Z,91.3
2018-03-15T08:55:01.393Z,87.58
2018-03-15T08:56:01.107Z,88.58
2018-03-15T08:57:01.111Z,88.92
2018-03-15T08:58:01.350Z,89.39
2018-03-15T08:59:01.346Z,86.82
2018-03-15T09:00:01.334Z,86.72
2018-03-15T09:01:01.319Z,86.1
2018-03-15T09:02:01.316Z,84.32
2018-03-15T09:03:01.296Z,82.22
2018-03-15T09:04:01.024Z,84.42
2018-03-15T09:05:01.014Z,85.24
2018-03-15T09:06:01.415Z,84.89
2018-03-15T09:07:00.988Z,84.52
2018-03-15T09:08:01.394Z,83.27
2018-03-15T09:09:00.978Z,83.17
2018-03-15T09:10:00.961Z,84.32
2018-03-15T09:11:01.267Z,85.38
2018-03-15T09:12:01.207Z,84.23
2018-03-15T09:13:01.201Z,83.27
2018-03-15T09:14:01.186Z,84.32
2018-03-15T09:15:01.175Z,84.23
2018-03-15T09:16:01.162Z,83.75
2018-03-15T09:17:00.916Z,85.33
2018-03-15T09:18:00.875Z,86.72
2018-03-15T09:19:01.164Z,87.06
2018-03-15T09:20:00.853Z,89.01
2018-03-15T09:21:01.109Z,89.59
2018-03-15T09:22:01.096Z,88.87
2018-03-15T09:23:01.086Z,87.66
2018-03-15T09:24:00.811Z,85.38
2018-03-15T09:25:01.065Z,83.75
2018-03-15T09:26:01.060Z,84.7
2018-03-15T09:27:01.053Z,85.38
2018-03-15T09:28:01.037Z,83.79
2018-03-15T09:29:01.029Z,82.87
2018-03-15T09:30:01.024Z,81.44
2018-03-15T09:31:00.739Z,80.33
2018-03-15T09:32:01.008Z,79.24
2018-03-15T09:33:00.723Z,79.18
2018-03-15T09:34:00.984Z,78.32
2018-03-15T09:35:01.607Z,78.28
2018-03-15T09:36:00.694Z,78.57
2018-03-15T09:37:00.682Z,77.33
2018-03-15T09:38:00.959Z,77.51
2018-03-15T09:39:00.938Z,79.58
2018-03-15T09:40:00.930Z,82.22
2018-03-15T09:41:00.922Z,85.71
2018-03-15T09:42:00.924Z,87.58
2018-03-15T09:43:01.807Z,89.49
2018-03-15T09:44:00.893Z,90.02
2018-03-15T09:45:00.593Z,90.69
2018-03-15T09:46:00.883Z,91.45
2018-03-15T09:47:00.774Z,90.11
2018-03-15T09:48:00.561Z,91.36
2018-03-15T09:49:00.551Z,89.83
2018-03-15T09:50:00.539Z,90.11
2018-03-15T09:51:00.816Z,89.45
2018-03-15T09:52:00.799Z,90.16
2018-03-15T09:53:00.506Z,90.35
2018-03-15T09:54:00.490Z,88.44
2018-03-15T09:55:00.756Z,87.53
2018-03-15T09:56:00.749Z,86.76
2018-03-15T09:57:00.456Z,87.91
2018-03-15T09:58:01.535Z,91.4
2018-03-15T09:59:00.713Z,92.07
2018-03-15T10:00:00.702Z,92.21
2018-03-15T10:01:00.409Z,91.26
2018-03-15T10:02:00.684Z,91.21
2018-03-15T10:03:00.680Z,90.25
2018-03-15T10:04:00.370Z,89.87
2018-03-15T10:05:00.892Z,92.6
2018-03-15T10:06:00.348Z,92.5
2018-03-15T10:07:00.336Z,91.83
2018-03-15T10:08:00.634Z,93.07
2018-03-15T10:09:00.723Z,94.46
2018-03-15T10:10:00.306Z,93.79
2018-03-15T10:11:00.566Z,92.83
2018-03-15T10:12:00.550Z,91.97
2018-03-15T10:13:00.263Z,92.36
2018-03-15T10:14:00.252Z,90.92
2018-03-15T10:15:00.515Z,92.11
2018-03-15T10:16:00.501Z,91.02
2018-03-15T10:17:00.491Z,91.88
2018-03-15T10:18:00.203Z,91.97
2018-03-15T10:19:00.199Z,91.21
2018-03-15T10:20:00.184Z,89.44
2018-03-15T10:21:00.172Z,89.63
2018-03-15T10:22:00.158Z,90.39
2018-03-15T10:23:00.448Z,90.3
2018-03-15T10:24:00.453Z,90.39
2018-03-15T10:25:00.126Z,90.06
2018-03-15T10:26:00.395Z,91.45
2018-03-15T10:27:00.408Z,91.74
2018-03-15T10:28:00.379Z,91.54
2018-03-15T10:29:00.081Z,90.78
2018-03-15T10:30:00.453Z,90.44
2018-03-15T10:31:00.104Z,90.44
2018-03-15T10:32:00.048Z,88.62
2018-03-15T10:33:00.034Z,86.8
2018-03-15T10:34:00.027Z,85.47
2018-03-15T10:35:01.100Z,86.8
2018-03-15T10:36:00.300Z,88.05
2018-03-15T10:37:00.290Z,87
2018-03-15T10:37:59.984Z,86.76
2018-03-15T10:38:59.972Z,86.94
2018-03-15T10:40:00.233Z,86.18
2018-03-15T10:41:00.230Z,86.66
2018-03-15T10:41:59.940Z,85.89
2018-03-15T10:42:59.929Z,85.65
2018-03-15T10:43:59.922Z,83.06
2018-03-15T10:44:59.912Z,82.11
2018-03-15T10:46:00.213Z,80.19
2018-03-15T10:46:59.891Z,81.44
2018-03-15T10:47:59.886Z,81.44
2018-03-15T10:49:00.171Z,80.67
2018-03-15T10:49:59.862Z,80.58
2018-03-15T10:51:00.129Z,80.29
2018-03-15T10:52:00.122Z,80.19
2018-03-15T10:53:00.122Z,84.12
2018-03-15T10:53:59.826Z,83.16
2018-03-15T10:55:00.091Z,82.87
2018-03-15T10:55:59.809Z,79.75
2018-03-15T10:57:00.107Z,80.14
2018-03-15T10:57:59.804Z,79.05
2018-03-15T10:58:59.787Z,79.33
2018-03-15T10:59:59.798Z,77.61
2018-03-15T11:01:00.059Z,77.19
2018-03-15T11:01:59.757Z,77.38
2018-03-15T11:02:59.750Z,78.53
2018-03-15T11:04:00.050Z,78.81
2018-03-15T11:05:00.022Z,79.68
2018-03-15T11:05:59.725Z,80.25
2018-03-15T11:06:59.717Z,81.4
2018-03-15T11:07:59.709Z,80.82
2018-03-15T11:08:59.698Z,77.86
2018-03-15T11:09:59.692Z,78.97
2018-03-15T11:10:59.975Z,78.58
2018-03-15T11:11:59.675Z,79.93
2018-03-15T11:12:59.665Z,80.44
2018-03-15T11:13:59.660Z,79.49
2018-03-15T11:14:59.653Z,79.81
2018-03-15T11:15:59.926Z,82.2
2018-03-15T11:16:59.913Z,80.62
2018-03-15T11:17:59.904Z,79.32
2018-03-15T11:18:59.621Z,77.59
2018-03-15T11:19:59.902Z,74.52
2018-03-15T11:21:00.417Z,73.76
2018-03-15T11:21:59.869Z,73.57
2018-03-15T11:22:59.875Z,75.35
2018-03-15T11:24:00.051Z,75.83
2018-03-15T11:24:59.576Z,74.52
2018-03-15T11:25:59.567Z,75.39
2018-03-15T11:26:59.556Z,73.66
2018-03-15T11:27:59.831Z,73.19
2018-03-15T11:29:00.250Z,74.72
2018-03-15T11:29:59.829Z,75.71
2018-03-15T11:30:59.539Z,74.76
2018-03-15T11:31:59.526Z,72.2
2018-03-15T11:32:59.804Z,70.48
2018-03-15T11:33:59.513Z,71.84
2018-03-15T11:34:59.506Z,72.61
2018-03-15T11:35:59.503Z,73.66
2018-03-15T11:36:59.496Z,72.52
2018-03-15T11:37:59.832Z,72.71
2018-03-15T11:38:59.485Z,73.54
2018-03-15T11:39:59.774Z,74.2
2018-03-15T11:40:59.479Z,74.62
2018-03-15T11:41:59.763Z,74.72
2018-03-15T11:42:59.762Z,73.38
2018-03-15T11:43:59.463Z,73.76
2018-03-15T11:44:59.456Z,72.32
2018-03-15T11:45:59.727Z,73.47
2018-03-15T11:46:59.648Z,73.99
2018-03-15T11:47:59.748Z,72.27
2018-03-15T11:48:59.726Z,72.55
2018-03-15T11:49:59.711Z,72.55
2018-03-15T11:50:59.714Z,73.03
2018-03-15T11:52:00.311Z,71.98
2018-03-15T11:52:59.416Z,72.36
2018-03-15T11:53:59.696Z,71.59
2018-03-15T11:54:59.708Z,72.3
2018-03-15T11:55:59.706Z,69.68
2018-03-15T11:56:59.681Z,70.25
2018-03-15T11:57:59.396Z,70.44
2018-03-15T11:58:59.698Z,71.11
2018-03-15T12:00:00.419Z,70.38
2018-03-15T12:00:59.656Z,69.71
2018-03-15T12:01:59.376Z,69.04
2018-03-15T12:02:59.371Z,68.5
2018-03-15T12:03:59.366Z,67.83
2018-03-15T12:04:59.363Z,68.98
2018-03-15T12:05:59.355Z,68.02
2018-03-15T12:06:59.354Z,68.69
2018-03-15T12:07:59.348Z,68.73
2018-03-15T12:08:59.344Z,68.05
2018-03-15T12:09:59.639Z,67.13
2018-03-15T12:10:59.629Z,67.22
2018-03-15T12:11:59.609Z,65.59
2018-03-15T12:12:59.613Z,63.96
2018-03-15T12:13:59.605Z,64.59
2018-03-15T12:15:00.260Z,65.97
2018-03-15T12:15:59.317Z,68.08
2018-03-15T12:16:59.580Z,67.41
2018-03-15T12:17:59.578Z,67.89
2018-03-15T12:18:59.574Z,67.06
2018-03-15T12:19:59.572Z,67.06
2018-03-15T12:20:59.301Z,67.06
2018-03-15T12:21:59.561Z,67.44
2018-03-15T12:22:59.561Z,65.94
2018-03-15T12:23:59.293Z,66.23
2018-03-15T12:24:59.294Z,66.03
2018-03-15T12:25:59.604Z,66.55
2018-03-15T12:26:59.279Z,66.26
2018-03-15T12:27:59.544Z,64.47
2018-03-15T12:28:59.273Z,63.02
2018-03-15T12:29:59.269Z,62.45
2018-03-15T12:30:59.532Z,62.9
2018-03-15T12:31:59.530Z,62.84
2018-03-15T12:32:59.315Z,60.82
2018-03-15T12:33:59.259Z,61.84
2018-03-15T12:34:59.517Z,61.05
2018-03-15T12:35:59.515Z,63.03
2018-03-15T12:36:59.512Z,63.99
2018-03-15T12:37:59.244Z,64.66
2018-03-15T12:38:59.554Z,64.95
2018-03-15T12:39:59.500Z,65.81
2018-03-15T12:40:59.492Z,64.76
2018-03-15T12:41:59.229Z,64.85
2018-03-15T12:42:59.489Z,66.19
2018-03-15T12:43:59.267Z,65.08
2018-03-15T12:44:59.481Z,64.02
2018-03-15T12:45:59.476Z,64.12
2018-03-15T12:46:59.206Z,63.92
2018-03-15T12:47:59.466Z,62.96
2018-03-15T12:48:59.203Z,63.51
2018-03-15T12:49:59.464Z,65.62
2018-03-15T12:50:59.189Z,65.52
2018-03-15T12:51:59.448Z,64.85
2018-03-15T12:52:59.181Z,64.28
2018-03-15T12:53:59.446Z,63.79
2018-03-15T12:54:59.437Z,65.14